sensor_id;sensor_type;location;lat;lon;timestamp;temperature;humidity
14252;DHT22;7210;51.502;10.722;2023-03-11T00:00:45;0.30;1.00
14252;DHT22;7210;51.502;10.722;2023-03-11T00:03:16;0.30;1.00
14252;DHT22;7210;51.502;10.722;2023-03-11T00:05:51;0.30;1.00
14252;DHT22;7210;51.502;10.722;2023-03-11T00:08:21;0.20;1.00
14252;DHT22;7210;51.502;10.722;2023-03-11T00:10:51;0.20;1.00
14252;DHT22;7210;51.502;10.722;2023-03-11T00:13:21;0.20;1.00
14252;DHT22;7210;51.502;10.722;2023-03-11T00:15:51;0.20;1.00
14252;DHT22;7210;51.502;10.722;2023-03-11T00:18:23;0.20;1.00
14252;DHT22;7210;51.502;10.722;2023-03-11T00:20:53;0.20;1.00
14252;DHT22;7210;51.502;10.722;2023-03-11T00:23:22;0.20;1.00
14252;DHT22;7210;51.502;10.722;2023-03-11T00:25:49;0.20;1.00
14252;DHT22;7210;51.502;10.722;2023-03-11T00:28:17;0.10;1.00
14252;DHT22;7210;51.502;10.722;2023-03-11T00:30:46;0.20;1.00
14252;DHT22;7210;51.502;10.722;2023-03-11T00:33:15;0.10;1.00
14252;DHT22;7210;51.502;10.722;2023-03-11T00:35:44;0.20;1.00
14252;DHT22;7210;51.502;10.722;2023-03-11T00:38:13;0.20;1.00
14252;DHT22;7210;51.502;10.722;2023-03-11T00:40:42;0.10;1.00
14252;DHT22;7210;51.502;10.722;2023-03-11T00:43:10;0.10;1.00
14252;DHT22;7210;51.502;10.722;2023-03-11T00:45:41;0.10;1.00
14252;DHT22;7210;51.502;10.722;2023-03-11T00:48:10;0.10;1.00
14252;DHT22;7210;51.502;10.722;2023-03-11T00:50:38;0.10;1.00
14252;DHT22;7210;51.502;10.722;2023-03-11T00:53:08;0.10;1.00
14252;DHT22;7210;51.502;10.722;2023-03-11T00:55:36;0.10;1.00
14252;DHT22;7210;51.502;10.722;2023-03-11T00:58:07;0.10;1.00
14252;DHT22;7210;51.502;10.722;2023-03-11T01:00:41;0.10;1.00
14252;DHT22;7210;51.502;10.722;2023-03-11T01:03:08;0.10;1.00
14252;DHT22;7210;51.502;10.722;2023-03-11T01:05:35;0.10;1.00
14252;DHT22;7210;51.502;10.722;2023-03-11T01:08:03;0.10;1.00
14252;DHT22;7210;51.502;10.722;2023-03-11T01:10:33;0.10;1.00
14252;DHT22;7210;51.502;10.722;2023-03-11T01:13:01;0.10;1.00
14252;DHT22;7210;51.502;10.722;2023-03-11T01:15:31;0.00;1.00
14252;DHT22;7210;51.502;10.722;2023-03-11T01:17:59;0.00;1.00
14252;DHT22;7210;51.502;10.722;2023-03-11T01:20:27;0.00;1.00
14252;DHT22;7210;51.502;10.722;2023-03-11T01:22:54;0.00;11.00
14252;DHT22;7210;51.502;10.722;2023-03-11T01:25:23;0.00;3.50
14252;DHT22;7210;51.502;10.722;2023-03-11T01:27:51;0.00;2.80
14252;DHT22;7210;51.502;10.722;2023-03-11T01:30:21;0.00;1.00
14252;DHT22;7210;51.502;10.722;2023-03-11T01:32:51;0.10;1.00
14252;DHT22;7210;51.502;10.722;2023-03-11T01:35:22;0.00;1.00
14252;DHT22;7210;51.502;10.722;2023-03-11T01:37:51;0.00;1.00
14252;DHT22;7210;51.502;10.722;2023-03-11T01:40:22;0.10;1.00
14252;DHT22;7210;51.502;10.722;2023-03-11T01:42:53;0.10;1.00
14252;DHT22;7210;51.502;10.722;2023-03-11T01:45:35;0.00;1.00
14252;DHT22;7210;51.502;10.722;2023-03-11T01:48:09;0.00;1.00
14252;DHT22;7210;51.502;10.722;2023-03-11T01:50:40;0.10;1.00
14252;DHT22;7210;51.502;10.722;2023-03-11T01:53:10;0.10;1.00
14252;DHT22;7210;51.502;10.722;2023-03-11T01:55:41;0.10;1.00
14252;DHT22;7210;51.502;10.722;2023-03-11T01:58:14;0.10;1.00
14252;DHT22;7210;51.502;10.722;2023-03-11T02:00:46;0.10;1.00
14252;DHT22;7210;51.502;10.722;2023-03-11T02:03:17;0.10;5.10
14252;DHT22;7210;51.502;10.722;2023-03-11T02:05:51;0.10;27.00
14252;DHT22;7210;51.502;10.722;2023-03-11T02:08:21;0.10;33.00
14252;DHT22;7210;51.502;10.722;2023-03-11T02:10:51;0.10;64.50
14252;DHT22;7210;51.502;10.722;2023-03-11T02:13:21;0.10;79.30
14252;DHT22;7210;51.502;10.722;2023-03-11T02:15:49;0.10;78.10
14252;DHT22;7210;51.502;10.722;2023-03-11T02:18:17;0.10;85.70
14252;DHT22;7210;51.502;10.722;2023-03-11T02:20:49;0.10;93.00
14252;DHT22;7210;51.502;10.722;2023-03-11T02:23:38;0.10;95.50
14252;DHT22;7210;51.502;10.722;2023-03-11T02:26:15;0.10;96.30
14252;DHT22;7210;51.502;10.722;2023-03-11T02:28:51;0.10;92.10
14252;DHT22;7210;51.502;10.722;2023-03-11T02:31:20;0.10;99.90
14252;DHT22;7210;51.502;10.722;2023-03-11T02:33:52;0.10;99.90
14252;DHT22;7210;51.502;10.722;2023-03-11T02:36:32;0.10;99.90
14252;DHT22;7210;51.502;10.722;2023-03-11T02:39:03;0.10;99.90
14252;DHT22;7210;51.502;10.722;2023-03-11T02:41:34;0.10;99.90
14252;DHT22;7210;51.502;10.722;2023-03-11T02:44:07;0.10;99.90
14252;DHT22;7210;51.502;10.722;2023-03-11T02:46:38;0.10;99.90
14252;DHT22;7210;51.502;10.722;2023-03-11T02:49:09;0.10;99.90
14252;DHT22;7210;51.502;10.722;2023-03-11T02:51:37;0.10;99.90
14252;DHT22;7210;51.502;10.722;2023-03-11T02:54:05;0.10;99.90
14252;DHT22;7210;51.502;10.722;2023-03-11T02:56:34;0.00;99.90
14252;DHT22;7210;51.502;10.722;2023-03-11T02:59:01;0.00;99.90
14252;DHT22;7210;51.502;10.722;2023-03-11T03:01:30;0.00;99.90
14252;DHT22;7210;51.502;10.722;2023-03-11T03:03:58;0.00;99.90
14252;DHT22;7210;51.502;10.722;2023-03-11T03:06:32;0.00;99.90
14252;DHT22;7210;51.502;10.722;2023-03-11T03:08:59;0.00;99.90
14252;DHT22;7210;51.502;10.722;2023-03-11T03:14:17;0.00;99.90
14252;DHT22;7210;51.502;10.722;2023-03-11T03:16:50;0.00;99.90
14252;DHT22;7210;51.502;10.722;2023-03-11T03:19:17;0.00;99.90
14252;DHT22;7210;51.502;10.722;2023-03-11T03:21:46;0.00;99.90
14252;DHT22;7210;51.502;10.722;2023-03-11T03:24:14;0.00;99.90
14252;DHT22;7210;51.502;10.722;2023-03-11T03:26:41;0.00;99.90
14252;DHT22;7210;51.502;10.722;2023-03-11T03:29:09;0.00;99.90
14252;DHT22;7210;51.502;10.722;2023-03-11T03:31:37;0.00;99.90
14252;DHT22;7210;51.502;10.722;2023-03-11T03:34:06;-0.10;99.90
14252;DHT22;7210;51.502;10.722;2023-03-11T03:36:36;0.00;99.90
14252;DHT22;7210;51.502;10.722;2023-03-11T03:39:04;-0.10;99.90
14252;DHT22;7210;51.502;10.722;2023-03-11T03:41:35;-0.10;99.90
14252;DHT22;7210;51.502;10.722;2023-03-11T03:44:03;-0.10;99.90
14252;DHT22;7210;51.502;10.722;2023-03-11T03:46:33;-0.10;99.90
14252;DHT22;7210;51.502;10.722;2023-03-11T03:49:02;-0.10;99.90
14252;DHT22;7210;51.502;10.722;2023-03-11T03:51:33;-0.10;99.90
14252;DHT22;7210;51.502;10.722;2023-03-11T03:54:23;-0.10;99.90
14252;DHT22;7210;51.502;10.722;2023-03-11T03:56:50;-0.10;99.90
14252;DHT22;7210;51.502;10.722;2023-03-11T03:59:18;0.00;99.90
14252;DHT22;7210;51.502;10.722;2023-03-11T04:01:50;0.00;99.90
14252;DHT22;7210;51.502;10.722;2023-03-11T04:04:18;0.00;99.90
14252;DHT22;7210;51.502;10.722;2023-03-11T04:06:47;-0.10;99.90
14252;DHT22;7210;51.502;10.722;2023-03-11T04:09:17;-0.10;99.90
14252;DHT22;7210;51.502;10.722;2023-03-11T04:11:45;-0.10;99.90
14252;DHT22;7210;51.502;10.722;2023-03-11T04:14:14;-0.10;99.90
14252;DHT22;7210;51.502;10.722;2023-03-11T04:16:49;-0.10;99.90
14252;DHT22;7210;51.502;10.722;2023-03-11T04:19:17;-0.10;99.90
14252;DHT22;7210;51.502;10.722;2023-03-11T04:21:45;-0.10;99.90
14252;DHT22;7210;51.502;10.722;2023-03-11T04:24:13;-0.10;99.90
14252;DHT22;7210;51.502;10.722;2023-03-11T04:26:41;-0.10;99.90
14252;DHT22;7210;51.502;10.722;2023-03-11T04:29:19;-0.10;99.90
14252;DHT22;7210;51.502;10.722;2023-03-11T04:31:49;-0.10;99.90
14252;DHT22;7210;51.502;10.722;2023-03-11T04:34:17;-0.10;99.90
14252;DHT22;7210;51.502;10.722;2023-03-11T04:36:45;-0.10;99.90
14252;DHT22;7210;51.502;10.722;2023-03-11T04:39:16;-0.10;99.90
14252;DHT22;7210;51.502;10.722;2023-03-11T04:41:45;-0.10;99.90
14252;DHT22;7210;51.502;10.722;2023-03-11T04:44:16;-0.10;99.90
14252;DHT22;7210;51.502;10.722;2023-03-11T04:46:44;-0.10;99.90
14252;DHT22;7210;51.502;10.722;2023-03-11T04:49:11;-0.10;99.90
14252;DHT22;7210;51.502;10.722;2023-03-11T04:51:38;-0.10;99.90
14252;DHT22;7210;51.502;10.722;2023-03-11T04:54:06;-0.10;99.90
14252;DHT22;7210;51.502;10.722;2023-03-11T04:56:35;-0.10;99.90
14252;DHT22;7210;51.502;10.722;2023-03-11T04:59:03;-0.10;99.90
14252;DHT22;7210;51.502;10.722;2023-03-11T05:01:33;-0.10;99.90
14252;DHT22;7210;51.502;10.722;2023-03-11T05:04:03;-0.10;99.90
14252;DHT22;7210;51.502;10.722;2023-03-11T05:06:30;-0.10;99.90
14252;DHT22;7210;51.502;10.722;2023-03-11T05:08:59;-0.10;99.90
14252;DHT22;7210;51.502;10.722;2023-03-11T05:11:26;-0.10;99.90
14252;DHT22;7210;51.502;10.722;2023-03-11T05:14:13;-0.10;99.90
14252;DHT22;7210;51.502;10.722;2023-03-11T05:16:41;-0.10;99.90
14252;DHT22;7210;51.502;10.722;2023-03-11T05:19:09;-0.10;99.90
14252;DHT22;7210;51.502;10.722;2023-03-11T05:21:50;-0.10;99.90
14252;DHT22;7210;51.502;10.722;2023-03-11T05:24:17;-0.10;99.90
14252;DHT22;7210;51.502;10.722;2023-03-11T05:26:45;0.00;99.90
14252;DHT22;7210;51.502;10.722;2023-03-11T05:29:13;-0.10;99.90
14252;DHT22;7210;51.502;10.722;2023-03-11T05:31:40;-0.10;99.90
14252;DHT22;7210;51.502;10.722;2023-03-11T05:34:08;-0.10;99.90
14252;DHT22;7210;51.502;10.722;2023-03-11T05:36:35;-0.10;99.90
14252;DHT22;7210;51.502;10.722;2023-03-11T05:39:03;-0.10;99.90
14252;DHT22;7210;51.502;10.722;2023-03-11T05:41:32;-0.10;99.90
14252;DHT22;7210;51.502;10.722;2023-03-11T05:44:00;-0.10;99.90
14252;DHT22;7210;51.502;10.722;2023-03-11T05:46:29;-0.10;99.90
14252;DHT22;7210;51.502;10.722;2023-03-11T05:48:58;-0.10;99.90
14252;DHT22;7210;51.502;10.722;2023-03-11T05:51:26;-0.20;99.90
14252;DHT22;7210;51.502;10.722;2023-03-11T05:53:55;-0.20;99.90
14252;DHT22;7210;51.502;10.722;2023-03-11T05:56:32;-0.10;99.90
14252;DHT22;7210;51.502;10.722;2023-03-11T05:59:00;-0.20;99.90
14252;DHT22;7210;51.502;10.722;2023-03-11T06:01:32;-0.20;99.90
14252;DHT22;7210;51.502;10.722;2023-03-11T06:04:00;-0.20;99.90
14252;DHT22;7210;51.502;10.722;2023-03-11T06:06:27;-0.20;99.90
14252;DHT22;7210;51.502;10.722;2023-03-11T06:08:55;-0.20;99.90
14252;DHT22;7210;51.502;10.722;2023-03-11T06:11:23;-0.30;99.90
14252;DHT22;7210;51.502;10.722;2023-03-11T06:14:22;-0.20;99.90
14252;DHT22;7210;51.502;10.722;2023-03-11T06:16:52;-0.30;99.90
14252;DHT22;7210;51.502;10.722;2023-03-11T06:19:19;-0.30;99.90
14252;DHT22;7210;51.502;10.722;2023-03-11T06:21:49;-0.30;99.90
14252;DHT22;7210;51.502;10.722;2023-03-11T06:24:17;-0.30;99.90
14252;DHT22;7210;51.502;10.722;2023-03-11T06:26:45;-0.30;99.90
14252;DHT22;7210;51.502;10.722;2023-03-11T06:29:16;-0.30;99.90
14252;DHT22;7210;51.502;10.722;2023-03-11T06:31:45;-0.30;99.90
14252;DHT22;7210;51.502;10.722;2023-03-11T06:34:13;-0.30;99.90
14252;DHT22;7210;51.502;10.722;2023-03-11T06:36:41;-0.20;99.90
14252;DHT22;7210;51.502;10.722;2023-03-11T06:39:12;-0.20;99.90
14252;DHT22;7210;51.502;10.722;2023-03-11T06:41:40;-0.20;99.90
14252;DHT22;7210;51.502;10.722;2023-03-11T06:44:10;-0.20;99.90
14252;DHT22;7210;51.502;10.722;2023-03-11T06:46:38;-0.20;99.90
14252;DHT22;7210;51.502;10.722;2023-03-11T06:49:09;-0.10;99.90
14252;DHT22;7210;51.502;10.722;2023-03-11T06:51:40;-0.10;99.90
14252;DHT22;7210;51.502;10.722;2023-03-11T06:54:09;-0.10;99.90
14252;DHT22;7210;51.502;10.722;2023-03-11T06:56:36;0.00;99.90
14252;DHT22;7210;51.502;10.722;2023-03-11T06:59:06;0.00;99.90
14252;DHT22;7210;51.502;10.722;2023-03-11T07:01:34;0.10;99.90
14252;DHT22;7210;51.502;10.722;2023-03-11T07:04:04;0.10;99.90
14252;DHT22;7210;51.502;10.722;2023-03-11T07:06:33;0.10;99.90
14252;DHT22;7210;51.502;10.722;2023-03-11T07:09:09;0.10;99.90
14252;DHT22;7210;51.502;10.722;2023-03-11T07:11:40;0.00;99.90
14252;DHT22;7210;51.502;10.722;2023-03-11T07:14:12;0.10;99.90
14252;DHT22;7210;51.502;10.722;2023-03-11T07:16:44;0.10;99.90
14252;DHT22;7210;51.502;10.722;2023-03-11T07:19:32;0.00;99.90
14252;DHT22;7210;51.502;10.722;2023-03-11T07:21:59;0.10;99.90
14252;DHT22;7210;51.502;10.722;2023-03-11T07:24:28;0.00;99.90
14252;DHT22;7210;51.502;10.722;2023-03-11T07:26:55;0.00;99.90
14252;DHT22;7210;51.502;10.722;2023-03-11T07:29:22;0.10;99.90
14252;DHT22;7210;51.502;10.722;2023-03-11T07:31:49;0.10;99.90
14252;DHT22;7210;51.502;10.722;2023-03-11T07:34:17;0.10;99.90
14252;DHT22;7210;51.502;10.722;2023-03-11T07:36:44;0.00;99.90
14252;DHT22;7210;51.502;10.722;2023-03-11T07:39:13;0.10;99.90
14252;DHT22;7210;51.502;10.722;2023-03-11T07:41:44;0.10;99.90
14252;DHT22;7210;51.502;10.722;2023-03-11T07:44:12;0.10;99.90
14252;DHT22;7210;51.502;10.722;2023-03-11T07:46:41;0.10;99.90
14252;DHT22;7210;51.502;10.722;2023-03-11T07:49:10;0.10;99.90
14252;DHT22;7210;51.502;10.722;2023-03-11T07:51:38;0.10;99.90
14252;DHT22;7210;51.502;10.722;2023-03-11T07:54:10;0.20;99.90
14252;DHT22;7210;51.502;10.722;2023-03-11T07:56:37;0.20;99.90
14252;DHT22;7210;51.502;10.722;2023-03-11T07:59:06;0.20;99.90
14252;DHT22;7210;51.502;10.722;2023-03-11T08:01:33;0.20;99.90
14252;DHT22;7210;51.502;10.722;2023-03-11T08:04:07;0.10;99.90
14252;DHT22;7210;51.502;10.722;2023-03-11T08:06:37;0.20;99.90
14252;DHT22;7210;51.502;10.722;2023-03-11T08:09:05;0.20;99.90
14252;DHT22;7210;51.502;10.722;2023-03-11T08:11:35;0.20;99.90
14252;DHT22;7210;51.502;10.722;2023-03-11T08:14:03;0.20;99.90
14252;DHT22;7210;51.502;10.722;2023-03-11T08:16:32;0.30;99.90
14252;DHT22;7210;51.502;10.722;2023-03-11T08:19:00;0.20;99.90
14252;DHT22;7210;51.502;10.722;2023-03-11T08:21:28;0.30;99.90
14252;DHT22;7210;51.502;10.722;2023-03-11T08:23:57;0.30;99.90
14252;DHT22;7210;51.502;10.722;2023-03-11T08:26:27;0.30;99.90
14252;DHT22;7210;51.502;10.722;2023-03-11T08:28:55;0.30;99.90
14252;DHT22;7210;51.502;10.722;2023-03-11T08:31:25;0.40;99.90
14252;DHT22;7210;51.502;10.722;2023-03-11T08:33:57;0.40;99.90
14252;DHT22;7210;51.502;10.722;2023-03-11T08:36:26;0.40;99.90
14252;DHT22;7210;51.502;10.722;2023-03-11T08:38:53;0.40;99.90
14252;DHT22;7210;51.502;10.722;2023-03-11T08:41:21;0.40;99.90
14252;DHT22;7210;51.502;10.722;2023-03-11T08:43:48;0.40;99.90
14252;DHT22;7210;51.502;10.722;2023-03-11T08:46:21;0.40;99.90
14252;DHT22;7210;51.502;10.722;2023-03-11T08:48:50;0.40;99.90
14252;DHT22;7210;51.502;10.722;2023-03-11T08:51:19;0.40;99.90
14252;DHT22;7210;51.502;10.722;2023-03-11T08:53:47;0.40;99.90
14252;DHT22;7210;51.502;10.722;2023-03-11T08:56:14;0.50;99.90
14252;DHT22;7210;51.502;10.722;2023-03-11T08:58:41;0.40;99.90
14252;DHT22;7210;51.502;10.722;2023-03-11T09:01:13;0.40;99.90
14252;DHT22;7210;51.502;10.722;2023-03-11T09:03:40;0.40;99.90
14252;DHT22;7210;51.502;10.722;2023-03-11T09:06:10;0.40;99.90
14252;DHT22;7210;51.502;10.722;2023-03-11T09:08:41;0.40;99.90
14252;DHT22;7210;51.502;10.722;2023-03-11T09:11:11;0.40;99.90
14252;DHT22;7210;51.502;10.722;2023-03-11T09:13:40;0.40;99.90
14252;DHT22;7210;51.502;10.722;2023-03-11T09:16:11;0.50;99.90
14252;DHT22;7210;51.502;10.722;2023-03-11T09:18:39;0.50;99.90
14252;DHT22;7210;51.502;10.722;2023-03-11T09:21:06;0.50;99.90
14252;DHT22;7210;51.502;10.722;2023-03-11T09:23:34;0.60;99.90
14252;DHT22;7210;51.502;10.722;2023-03-11T09:26:03;0.60;99.90
14252;DHT22;7210;51.502;10.722;2023-03-11T09:28:30;0.60;99.90
14252;DHT22;7210;51.502;10.722;2023-03-11T09:30:58;0.60;99.90
14252;DHT22;7210;51.502;10.722;2023-03-11T09:33:25;0.60;99.90
14252;DHT22;7210;51.502;10.722;2023-03-11T09:35:52;0.60;99.90
14252;DHT22;7210;51.502;10.722;2023-03-11T09:38:19;0.60;99.90
14252;DHT22;7210;51.502;10.722;2023-03-11T09:40:53;0.60;99.90
14252;DHT22;7210;51.502;10.722;2023-03-11T09:43:45;0.70;99.90
14252;DHT22;7210;51.502;10.722;2023-03-11T09:46:37;0.70;99.90
14252;DHT22;7210;51.502;10.722;2023-03-11T09:49:41;0.70;99.90
14252;DHT22;7210;51.502;10.722;2023-03-11T09:52:27;0.70;99.90
14252;DHT22;7210;51.502;10.722;2023-03-11T09:54:59;0.70;99.90
14252;DHT22;7210;51.502;10.722;2023-03-11T09:57:33;0.70;99.90
14252;DHT22;7210;51.502;10.722;2023-03-11T10:00:06;0.70;99.90
14252;DHT22;7210;51.502;10.722;2023-03-11T10:02:39;0.70;99.90
14252;DHT22;7210;51.502;10.722;2023-03-11T10:05:12;0.80;99.90
14252;DHT22;7210;51.502;10.722;2023-03-11T10:07:52;0.80;99.90
14252;DHT22;7210;51.502;10.722;2023-03-11T10:10:27;1.00;99.90
14252;DHT22;7210;51.502;10.722;2023-03-11T10:13:08;1.10;99.90
14252;DHT22;7210;51.502;10.722;2023-03-11T10:15:44;1.20;99.90
14252;DHT22;7210;51.502;10.722;2023-03-11T10:18:31;1.20;99.90
14252;DHT22;7210;51.502;10.722;2023-03-11T10:21:19;1.30;99.90
14252;DHT22;7210;51.502;10.722;2023-03-11T10:24:10;1.20;99.90
14252;DHT22;7210;51.502;10.722;2023-03-11T10:26:48;1.20;99.90
14252;DHT22;7210;51.502;10.722;2023-03-11T10:29:24;1.20;99.90
14252;DHT22;7210;51.502;10.722;2023-03-11T10:31:59;1.20;99.90
14252;DHT22;7210;51.502;10.722;2023-03-11T10:34:40;1.30;99.90
14252;DHT22;7210;51.502;10.722;2023-03-11T10:37:15;1.40;99.90
14252;DHT22;7210;51.502;10.722;2023-03-11T10:39:45;1.50;99.90
14252;DHT22;7210;51.502;10.722;2023-03-11T10:42:16;1.60;99.90
14252;DHT22;7210;51.502;10.722;2023-03-11T10:44:47;1.70;99.90
14252;DHT22;7210;51.502;10.722;2023-03-11T10:47:17;1.80;99.90
14252;DHT22;7210;51.502;10.722;2023-03-11T10:49:47;1.70;99.90
14252;DHT22;7210;51.502;10.722;2023-03-11T10:52:14;1.70;99.90
14252;DHT22;7210;51.502;10.722;2023-03-11T10:54:43;1.60;99.90
14252;DHT22;7210;51.502;10.722;2023-03-11T10:57:22;1.60;99.90
14252;DHT22;7210;51.502;10.722;2023-03-11T10:59:52;1.70;99.90
14252;DHT22;7210;51.502;10.722;2023-03-11T11:02:25;1.80;99.90
14252;DHT22;7210;51.502;10.722;2023-03-11T11:05:06;1.80;99.90
14252;DHT22;7210;51.502;10.722;2023-03-11T11:07:49;1.80;99.90
14252;DHT22;7210;51.502;10.722;2023-03-11T11:10:19;1.90;99.90
14252;DHT22;7210;51.502;10.722;2023-03-11T11:12:52;1.90;99.90
14252;DHT22;7210;51.502;10.722;2023-03-11T11:15:23;1.90;99.90
14252;DHT22;7210;51.502;10.722;2023-03-11T11:17:56;1.90;99.90
14252;DHT22;7210;51.502;10.722;2023-03-11T11:20:26;1.90;99.90
14252;DHT22;7210;51.502;10.722;2023-03-11T11:22:56;2.00;99.90
14252;DHT22;7210;51.502;10.722;2023-03-11T11:25:30;2.10;99.90
14252;DHT22;7210;51.502;10.722;2023-03-11T11:28:01;2.10;99.90
14252;DHT22;7210;51.502;10.722;2023-03-11T11:30:30;2.30;99.90
14252;DHT22;7210;51.502;10.722;2023-03-11T11:33:32;2.40;99.90
14252;DHT22;7210;51.502;10.722;2023-03-11T11:36:11;2.50;99.90
14252;DHT22;7210;51.502;10.722;2023-03-11T11:38:41;2.50;99.90
14252;DHT22;7210;51.502;10.722;2023-03-11T11:41:14;2.40;99.90
14252;DHT22;7210;51.502;10.722;2023-03-11T11:43:48;2.40;99.90
14252;DHT22;7210;51.502;10.722;2023-03-11T11:46:23;2.50;99.90
14252;DHT22;7210;51.502;10.722;2023-03-11T11:49:02;2.50;99.90
14252;DHT22;7210;51.502;10.722;2023-03-11T11:51:37;2.60;99.90
14252;DHT22;7210;51.502;10.722;2023-03-11T11:54:14;2.70;99.90
14252;DHT22;7210;51.502;10.722;2023-03-11T11:56:44;2.70;99.90
14252;DHT22;7210;51.502;10.722;2023-03-11T11:59:16;2.70;99.90
14252;DHT22;7210;51.502;10.722;2023-03-11T12:01:56;2.60;99.90
14252;DHT22;7210;51.502;10.722;2023-03-11T12:04:53;2.70;99.90
14252;DHT22;7210;51.502;10.722;2023-03-11T12:07:34;2.90;99.90
14252;DHT22;7210;51.502;10.722;2023-03-11T12:10:20;3.00;99.90
14252;DHT22;7210;51.502;10.722;2023-03-11T12:13:22;3.00;99.90
14252;DHT22;7210;51.502;10.722;2023-03-11T12:16:18;2.80;99.90
14252;DHT22;7210;51.502;10.722;2023-03-11T12:18:56;2.80;99.90
14252;DHT22;7210;51.502;10.722;2023-03-11T12:21:59;2.80;99.90
14252;DHT22;7210;51.502;10.722;2023-03-11T12:24:57;3.00;99.90
14252;DHT22;7210;51.502;10.722;2023-03-11T12:27:42;3.20;99.90
14252;DHT22;7210;51.502;10.722;2023-03-11T12:30:17;3.30;99.90
14252;DHT22;7210;51.502;10.722;2023-03-11T12:32:50;3.20;99.90
14252;DHT22;7210;51.502;10.722;2023-03-11T12:35:23;3.10;99.90
14252;DHT22;7210;51.502;10.722;2023-03-11T12:38:01;3.20;99.90
14252;DHT22;7210;51.502;10.722;2023-03-11T12:40:59;3.40;99.90
14252;DHT22;7210;51.502;10.722;2023-03-11T12:47:16;4.10;99.90
14252;DHT22;7210;51.502;10.722;2023-03-11T12:49:49;4.10;99.90
14252;DHT22;7210;51.502;10.722;2023-03-11T12:52:25;4.10;99.90
14252;DHT22;7210;51.502;10.722;2023-03-11T12:58:30;4.00;99.90
14252;DHT22;7210;51.502;10.722;2023-03-11T13:01:29;3.80;99.90
14252;DHT22;7210;51.502;10.722;2023-03-11T13:04:29;3.60;99.90
14252;DHT22;7210;51.502;10.722;2023-03-11T13:07:34;3.50;99.90
14252;DHT22;7210;51.502;10.722;2023-03-11T13:10:13;3.50;99.90
14252;DHT22;7210;51.502;10.722;2023-03-11T13:12:45;3.70;99.90
14252;DHT22;7210;51.502;10.722;2023-03-11T13:15:33;3.90;99.90
14252;DHT22;7210;51.502;10.722;2023-03-11T13:18:11;4.00;99.90
14252;DHT22;7210;51.502;10.722;2023-03-11T13:20:48;4.00;99.90
14252;DHT22;7210;51.502;10.722;2023-03-11T13:23:34;4.00;99.90
14252;DHT22;7210;51.502;10.722;2023-03-11T13:29:12;3.90;99.90
14252;DHT22;7210;51.502;10.722;2023-03-11T13:32:15;3.80;99.90
14252;DHT22;7210;51.502;10.722;2023-03-11T13:35:23;3.60;99.90
14252;DHT22;7210;51.502;10.722;2023-03-11T13:38:16;3.40;99.90
14252;DHT22;7210;51.502;10.722;2023-03-11T13:41:02;3.50;99.90
14252;DHT22;7210;51.502;10.722;2023-03-11T13:43:43;3.40;99.90
14252;DHT22;7210;51.502;10.722;2023-03-11T13:46:22;3.40;99.90
14252;DHT22;7210;51.502;10.722;2023-03-11T13:49:00;3.40;99.90
14252;DHT22;7210;51.502;10.722;2023-03-11T13:51:37;3.40;99.90
14252;DHT22;7210;51.502;10.722;2023-03-11T13:54:24;3.50;99.90
14252;DHT22;7210;51.502;10.722;2023-03-11T13:57:00;3.50;99.90
14252;DHT22;7210;51.502;10.722;2023-03-11T13:59:29;3.50;99.90
14252;DHT22;7210;51.502;10.722;2023-03-11T14:02:02;3.50;99.90
14252;DHT22;7210;51.502;10.722;2023-03-11T14:04:43;3.60;99.90
14252;DHT22;7210;51.502;10.722;2023-03-11T14:07:19;3.60;99.90
14252;DHT22;7210;51.502;10.722;2023-03-11T14:09:50;3.60;99.90
14252;DHT22;7210;51.502;10.722;2023-03-11T14:12:17;3.50;99.90
14252;DHT22;7210;51.502;10.722;2023-03-11T14:14:49;3.40;99.90
14252;DHT22;7210;51.502;10.722;2023-03-11T14:17:23;3.40;99.90
14252;DHT22;7210;51.502;10.722;2023-03-11T14:20:02;3.50;99.90
14252;DHT22;7210;51.502;10.722;2023-03-11T14:22:31;3.50;99.90
14252;DHT22;7210;51.502;10.722;2023-03-11T14:25:01;3.60;99.90
14252;DHT22;7210;51.502;10.722;2023-03-11T14:27:33;3.60;99.90
14252;DHT22;7210;51.502;10.722;2023-03-11T14:30:00;3.60;99.90
14252;DHT22;7210;51.502;10.722;2023-03-11T14:32:32;3.50;99.90
14252;DHT22;7210;51.502;10.722;2023-03-11T14:35:00;3.60;99.90
14252;DHT22;7210;51.502;10.722;2023-03-11T14:37:31;3.50;99.90
14252;DHT22;7210;51.502;10.722;2023-03-11T14:39:59;3.50;99.90
14252;DHT22;7210;51.502;10.722;2023-03-11T14:42:30;3.60;99.90
14252;DHT22;7210;51.502;10.722;2023-03-11T14:45:04;3.60;99.90
14252;DHT22;7210;51.502;10.722;2023-03-11T14:47:42;3.70;99.90
14252;DHT22;7210;51.502;10.722;2023-03-11T14:50:15;3.70;99.90
14252;DHT22;7210;51.502;10.722;2023-03-11T14:52:46;3.80;99.90
14252;DHT22;7210;51.502;10.722;2023-03-11T14:55:19;3.80;99.90
14252;DHT22;7210;51.502;10.722;2023-03-11T14:57:51;3.80;99.90
14252;DHT22;7210;51.502;10.722;2023-03-11T15:00:23;3.70;99.90
14252;DHT22;7210;51.502;10.722;2023-03-11T15:03:03;3.70;99.90
14252;DHT22;7210;51.502;10.722;2023-03-11T15:05:45;3.70;99.90
14252;DHT22;7210;51.502;10.722;2023-03-11T15:08:18;3.70;99.90
14252;DHT22;7210;51.502;10.722;2023-03-11T15:11:01;3.60;99.90
14252;DHT22;7210;51.502;10.722;2023-03-11T15:13:30;3.50;99.90
14252;DHT22;7210;51.502;10.722;2023-03-11T15:15:58;3.50;99.90
14252;DHT22;7210;51.502;10.722;2023-03-11T15:18:30;3.50;99.90
14252;DHT22;7210;51.502;10.722;2023-03-11T15:21:04;3.50;99.90
14252;DHT22;7210;51.502;10.722;2023-03-11T15:23:38;3.40;99.90
14252;DHT22;7210;51.502;10.722;2023-03-11T15:26:17;3.50;99.90
14252;DHT22;7210;51.502;10.722;2023-03-11T15:28:56;3.50;99.90
14252;DHT22;7210;51.502;10.722;2023-03-11T15:31:32;3.50;99.90
14252;DHT22;7210;51.502;10.722;2023-03-11T15:34:27;3.50;99.90
14252;DHT22;7210;51.502;10.722;2023-03-11T15:37:14;3.50;99.90
14252;DHT22;7210;51.502;10.722;2023-03-11T15:39:47;3.50;99.90
14252;DHT22;7210;51.502;10.722;2023-03-11T15:42:21;3.50;99.90
14252;DHT22;7210;51.502;10.722;2023-03-11T15:45:09;3.40;99.90
14252;DHT22;7210;51.502;10.722;2023-03-11T15:47:41;3.30;99.90
14252;DHT22;7210;51.502;10.722;2023-03-11T15:50:19;3.30;99.90
14252;DHT22;7210;51.502;10.722;2023-03-11T15:52:49;3.30;99.90
14252;DHT22;7210;51.502;10.722;2023-03-11T15:55:17;3.30;99.90
14252;DHT22;7210;51.502;10.722;2023-03-11T15:57:46;3.20;99.90
14252;DHT22;7210;51.502;10.722;2023-03-11T16:00:17;3.20;99.90
14252;DHT22;7210;51.502;10.722;2023-03-11T16:02:47;3.20;99.90
14252;DHT22;7210;51.502;10.722;2023-03-11T16:05:19;3.10;99.90
14252;DHT22;7210;51.502;10.722;2023-03-11T16:07:48;3.10;99.90
14252;DHT22;7210;51.502;10.722;2023-03-11T16:10:17;3.10;99.90
14252;DHT22;7210;51.502;10.722;2023-03-11T16:12:45;3.00;99.90
14252;DHT22;7210;51.502;10.722;2023-03-11T16:15:19;3.00;99.90
14252;DHT22;7210;51.502;10.722;2023-03-11T16:17:50;3.00;99.90
14252;DHT22;7210;51.502;10.722;2023-03-11T16:20:19;3.00;99.90
14252;DHT22;7210;51.502;10.722;2023-03-11T16:22:50;3.00;99.90
14252;DHT22;7210;51.502;10.722;2023-03-11T16:25:22;3.00;99.90
14252;DHT22;7210;51.502;10.722;2023-03-11T16:27:54;3.00;99.90
14252;DHT22;7210;51.502;10.722;2023-03-11T16:30:25;2.90;99.90
14252;DHT22;7210;51.502;10.722;2023-03-11T16:32:53;2.90;99.90